Time;durP1;ratioP1;P1;durP2;ratioP2;P2;SDS_P1;SDS_P2;PMS_P1;PMS_P2;Temp;Humidity;BMP_temperature;BMP_pressure;BME280_temperature;BME280_humidity;BME280_pressure;Samples;Min_cycle;Max_cycle;Signal;HPM_P1;HPM_P2
2023/03/31 00:02:13;;;;;;;3.05;1.67;;;10.40;99.90;;;;;;5054045;28;20208;-76
2023/03/31 00:04:44;;;;;;;2.40;1.65;;;10.40;99.90;;;;;;5054391;28;20712;-76
2023/03/31 00:07:13;;;;;;;1.65;1.20;;;10.40;99.90;;;;;;5053321;28;20231;-76
2023/03/31 00:09:47;;;;;;;2.00;1.80;;;10.40;99.90;;;;;;5053799;28;20244;-76
2023/03/31 00:12:14;;;;;;;4.35;1.60;;;10.40;99.90;;;;;;5053788;28;20201;-76
2023/03/31 00:14:41;;;;;;;2.97;1.90;;;10.40;99.90;;;;;;5053868;28;20201;-76
2023/03/31 00:17:09;;;;;;;2.72;1.85;;;10.40;99.90;;;;;;5052691;28;20212;-75
2023/03/31 00:19:36;;;;;;;4.40;1.58;;;10.40;99.90;;;;;;5053429;28;20303;-75
2023/03/31 00:22:04;;;;;;;1.83;1.65;;;10.40;99.90;;;;;;5052910;28;20228;-75
2023/03/31 00:24:31;;;;;;;2.78;1.50;;;10.40;99.90;;;;;;5053346;28;20216;-75
2023/03/31 00:27:00;;;;;;;3.17;1.55;;;10.40;99.90;;;;;;5054752;28;20292;-75
2023/03/31 00:29:26;;;;;;;4.18;1.90;;;10.40;99.90;;;;;;5053801;28;20292;-75
2023/03/31 00:31:54;;;;;;;3.85;1.60;;;10.40;99.90;;;;;;5053121;28;20201;-75
2023/03/31 00:34:21;;;;;;;2.75;1.73;;;10.30;99.90;;;;;;5053068;28;20202;-75
2023/03/31 00:36:47;;;;;;;2.10;1.40;;;10.30;99.90;;;;;;5037971;28;20200;-75
2023/03/31 00:39:16;;;;;;;6.68;2.00;;;10.30;99.90;;;;;;5032395;28;20781;-75
2023/03/31 00:41:44;;;;;;;3.72;1.65;;;10.20;99.90;;;;;;5032391;28;20229;-75
2023/03/31 00:44:17;;;;;;;5.75;2.20;;;10.20;99.90;;;;;;5032927;28;20256;-75
2023/03/31 00:46:51;;;;;;;11.13;2.25;;;10.20;99.90;;;;;;5032767;28;20194;-75
2023/03/31 00:49:25;;;;;;;2.17;1.65;;;10.20;99.90;;;;;;5032139;28;20206;-75
2023/03/31 00:51:54;;;;;;;2.10;1.60;;;10.20;99.90;;;;;;5032634;28;20228;-75
2023/03/31 00:54:25;;;;;;;3.95;1.40;;;10.20;99.90;;;;;;5031934;28;20223;-75
2023/03/31 00:56:54;;;;;;;2.53;1.58;;;10.20;99.90;;;;;;5032379;28;20284;-75
2023/03/31 00:59:27;;;;;;;2.70;1.40;;;10.30;99.90;;;;;;5032178;28;20318;-75
2023/03/31 01:01:58;;;;;;;3.45;1.60;;;10.30;99.90;;;;;;5034224;28;20198;-75
2023/03/31 01:04:25;;;;;;;2.67;1.70;;;10.40;99.90;;;;;;5032516;28;20209;-75
2023/03/31 01:06:59;;;;;;;4.93;1.55;;;10.40;99.90;;;;;;5034151;28;20210;-75
2023/03/31 01:09:29;;;;;;;2.17;1.98;;;10.40;99.90;;;;;;5032179;28;20203;-75
2023/03/31 01:11:57;;;;;;;2.35;2.05;;;10.40;99.90;;;;;;5032422;28;20904;-75
2023/03/31 01:14:25;;;;;;;2.15;1.60;;;10.40;99.90;;;;;;5032146;28;20200;-75
2023/03/31 01:16:52;;;;;;;2.05;1.60;;;10.40;99.90;;;;;;5032043;28;20206;-75
2023/03/31 01:19:26;;;;;;;2.05;1.65;;;10.40;99.90;;;;;;5031597;28;20206;-75
2023/03/31 01:22:30;;;;;;;2.90;1.77;;;10.50;99.90;;;;;;5032223;28;20263;-75
2023/03/31 01:25:20;;;;;;;2.60;1.70;;;10.50;99.90;;;;;;5031528;28;20213;-75
2023/03/31 01:27:57;;;;;;;1.55;1.42;;;10.50;99.90;;;;;;5032177;28;20209;-75
2023/03/31 01:30:56;;;;;;;4.68;1.77;;;10.50;99.90;;;;;;5031876;28;20228;-75
2023/03/31 01:34:11;;;;;;;2.63;1.40;;;10.50;99.90;;;;;;5031813;28;20220;-75
2023/03/31 01:37:15;;;;;;;2.35;1.40;;;10.40;99.90;;;;;;5031398;28;20259;-75
2023/03/31 01:40:14;;;;;;;2.60;1.52;;;10.40;99.90;;;;;;5031342;28;20696;-76
2023/03/31 01:42:49;;;;;;;3.20;1.65;;;10.50;99.90;;;;;;5031363;28;20202;-75
2023/03/31 01:45:26;;;;;;;2.75;1.30;;;10.60;99.90;;;;;;5030645;28;20221;-75
2023/03/31 01:47:57;;;;;;;3.25;1.58;;;10.70;99.90;;;;;;5031508;28;20209;-75
2023/03/31 01:50:28;;;;;;;2.53;1.70;;;10.80;99.90;;;;;;5031430;28;20255;-75
2023/03/31 01:53:01;;;;;;;3.35;1.58;;;10.90;99.90;;;;;;5030633;28;20201;-75
2023/03/31 01:55:36;;;;;;;2.00;1.30;;;10.90;99.90;;;;;;5030457;28;20190;-75
2023/03/31 01:58:09;;;;;;;2.78;1.50;;;10.90;99.90;;;;;;5030434;28;20201;-76
2023/03/31 02:00:39;;;;;;;1.73;1.60;;;10.90;99.90;;;;;;5030961;28;20224;-76
2023/03/31 02:03:11;;;;;;;2.33;1.42;;;10.90;99.90;;;;;;5030954;28;20201;-76
2023/03/31 02:05:43;;;;;;;3.85;1.80;;;10.90;99.90;;;;;;5029851;28;20584;-76
2023/03/31 02:08:14;;;;;;;5.13;2.05;;;10.90;99.90;;;;;;5030457;28;20630;-76
2023/03/31 02:10:44;;;;;;;2.80;1.67;;;10.80;99.90;;;;;;5030560;28;20705;-75
2023/03/31 02:13:14;;;;;;;3.38;1.40;;;10.70;99.90;;;;;;5029778;28;20609;-76
2023/03/31 02:15:46;;;;;;;3.20;1.30;;;10.70;99.90;;;;;;5030777;28;20271;-75
2023/03/31 02:18:18;;;;;;;4.07;1.77;;;10.60;99.90;;;;;;5031008;28;20648;-76
2023/03/31 02:20:48;;;;;;;1.80;1.70;;;10.60;99.90;;;;;;5031076;28;20220;-76
2023/03/31 02:23:17;;;;;;;1.83;1.30;;;10.50;99.90;;;;;;5032248;28;20201;-76
2023/03/31 02:25:49;;;;;;;5.20;1.63;;;10.50;99.90;;;;;;5050980;28;20217;-75
2023/03/31 02:28:20;;;;;;;5.57;2.03;;;10.40;99.90;;;;;;5050488;28;20212;-75
2023/03/31 02:30:54;;;;;;;4.28;2.30;;;10.40;99.90;;;;;;5051725;28;20312;-75
2023/03/31 02:33:20;;;;;;;5.15;1.75;;;10.40;99.90;;;;;;5050871;28;20200;-76
2023/03/31 02:35:47;;;;;;;2.45;1.83;;;10.30;99.90;;;;;;5051924;28;20208;-76
2023/03/31 02:38:14;;;;;;;2.53;2.22;;;10.20;99.90;;;;;;5051428;28;20208;-76
2023/03/31 02:40:41;;;;;;;5.15;2.03;;;10.10;99.90;;;;;;5051386;28;20770;-76
2023/03/31 02:43:09;;;;;;;5.20;2.20;;;10.10;99.90;;;;;;5050727;28;20216;-76
2023/03/31 02:45:43;;;;;;;7.45;2.15;;;10.10;99.90;;;;;;5051130;28;20678;-76
2023/03/31 02:48:13;;;;;;;2.38;1.55;;;10.00;99.90;;;;;;5050713;28;20205;-76
2023/03/31 02:51:00;;;;;;;7.07;2.40;;;10.00;99.90;;;;;;5051330;28;20595;-75
2023/03/31 02:53:38;;;;;;;2.05;1.83;;;10.10;99.90;;;;;;5050895;28;20607;-75
2023/03/31 02:56:22;;;;;;;3.40;1.77;;;10.00;99.90;;;;;;5050857;28;20204;-75
2023/03/31 02:59:06;;;;;;;2.00;1.83;;;10.00;99.90;;;;;;5079392;22;20242;-68
2023/03/31 03:01:43;;;;;;;4.47;1.85;;;9.90;99.90;;;;;;5010262;28;20388;-68
2023/03/31 03:04:24;;;;;;;2.05;1.55;;;9.90;99.90;;;;;;5010185;28;20221;-67
2023/03/31 03:07:01;;;;;;;3.22;2.55;;;9.90;99.90;;;;;;5010203;28;20234;-66
2023/03/31 03:09:36;;;;;;;2.33;1.27;;;9.90;99.90;;;;;;5009640;28;20226;-66
2023/03/31 03:12:11;;;;;;;4.50;1.75;;;9.90;99.90;;;;;;5009422;28;20692;-69
2023/03/31 03:14:46;;;;;;;3.15;1.90;;;9.80;99.90;;;;;;5010198;28;20264;-66
2023/03/31 03:17:20;;;;;;;1.42;1.30;;;9.80;99.90;;;;;;5012363;28;20208;-66
2023/03/31 03:19:53;;;;;;;3.67;2.08;;;9.80;99.90;;;;;;5013655;28;20727;-66
2023/03/31 03:22:20;;;;;;;5.05;1.67;;;9.70;99.90;;;;;;5012991;28;20264;-67
2023/03/31 03:24:46;;;;;;;2.80;1.83;;;9.60;99.90;;;;;;5013485;28;20219;-69
2023/03/31 03:27:13;;;;;;;3.75;2.13;;;9.50;99.90;;;;;;5012357;28;20620;-69
2023/03/31 03:29:41;;;;;;;3.05;1.77;;;9.50;99.90;;;;;;4998949;28;20563;-69
2023/03/31 03:32:09;;;;;;;1.90;1.63;;;9.40;99.90;;;;;;5013634;28;20209;-69
2023/03/31 03:34:36;;;;;;;2.03;1.73;;;9.30;99.90;;;;;;4998187;28;20195;-69
2023/03/31 03:37:02;;;;;;;3.15;1.77;;;9.30;99.90;;;;;;5013518;28;20268;-69
2023/03/31 03:39:29;;;;;;;2.17;1.80;;;9.30;99.90;;;;;;5013160;28;20973;-69
2023/03/31 03:41:56;;;;;;;2.50;1.90;;;9.20;99.90;;;;;;5012549;28;20673;-68
2023/03/31 03:44:23;;;;;;;2.90;1.80;;;9.20;99.90;;;;;;5010166;28;20236;-69
2023/03/31 03:46:51;;;;;;;2.67;2.38;;;9.10;99.90;;;;;;4996356;28;20932;-69
2023/03/31 03:49:19;;;;;;;2.38;1.67;;;9.10;99.90;;;;;;4983910;28;20207;-69
2023/03/31 03:51:45;;;;;;;2.47;1.88;;;9.10;99.90;;;;;;5007161;28;20225;-69
2023/03/31 03:54:12;;;;;;;6.55;2.17;;;9.00;99.90;;;;;;5009234;28;20205;-69
2023/03/31 03:56:39;;;;;;;3.38;1.98;;;9.00;99.90;;;;;;5005222;28;20219;-69
2023/03/31 03:59:06;;;;;;;3.22;1.80;;;9.00;99.90;;;;;;5012593;28;20213;-67
2023/03/31 04:01:32;;;;;;;4.07;2.08;;;8.90;99.90;;;;;;5004512;28;20218;-68
2023/03/31 04:04:00;;;;;;;1.60;1.50;;;8.90;99.90;;;;;;5012936;28;20202;-68
2023/03/31 04:06:27;;;;;;;3.15;1.85;;;8.90;99.90;;;;;;5012622;28;20225;-68
2023/03/31 04:08:54;;;;;;;2.35;1.95;;;8.90;99.90;;;;;;5012454;28;20206;-68
2023/03/31 04:11:21;;;;;;;3.08;2.08;;;8.80;99.90;;;;;;5011318;28;20409;-67
2023/03/31 04:13:48;;;;;;;2.67;2.20;;;8.80;99.90;;;;;;5010417;28;20541;-71
2023/03/31 04:16:15;;;;;;;3.28;2.30;;;8.70;99.90;;;;;;5005100;28;20199;-70
2023/03/31 04:18:42;;;;;;;3.70;2.35;;;8.70;99.90;;;;;;5002089;28;20198;-70
2023/03/31 04:21:14;;;;;;;5.50;2.33;;;8.70;99.90;;;;;;5012738;28;20227;-69
2023/03/31 04:23:45;;;;;;;3.20;2.00;;;8.60;99.90;;;;;;4997787;28;20202;-71
2023/03/31 04:26:12;;;;;;;2.08;1.88;;;8.70;99.90;;;;;;5011704;28;20625;-71
2023/03/31 04:28:41;;;;;;;2.92;2.33;;;8.70;99.90;;;;;;5011894;28;20203;-72
2023/03/31 04:31:14;;;;;;;2.65;2.10;;;8.70;99.90;;;;;;5011840;28;20737;-73
2023/03/31 04:33:44;;;;;;;3.38;2.15;;;8.70;99.90;;;;;;4997552;28;20260;-73
2023/03/31 04:36:16;;;;;;;3.58;2.30;;;8.70;99.90;;;;;;5012328;28;20205;-73
2023/03/31 04:38:45;;;;;;;5.63;2.95;;;8.70;99.90;;;;;;5012259;28;20249;-71
2023/03/31 04:41:12;;;;;;;3.60;2.30;;;8.70;99.90;;;;;;5012228;28;20741;-70
2023/03/31 04:43:39;;;;;;;6.13;2.75;;;8.80;99.90;;;;;;5012416;28;20206;-72
2023/03/31 04:46:06;;;;;;;2.42;2.05;;;8.80;99.90;;;;;;5012228;28;20222;-71
2023/03/31 04:48:33;;;;;;;5.18;2.13;;;8.80;99.90;;;;;;5011997;28;20623;-70
2023/03/31 04:51:00;;;;;;;5.53;2.25;;;8.80;99.90;;;;;;5012135;28;20226;-70
2023/03/31 04:53:29;;;;;;;2.63;1.90;;;8.90;99.90;;;;;;5011770;28;20210;-72
2023/03/31 04:55:55;;;;;;;4.65;2.15;;;8.90;99.90;;;;;;5012046;28;20202;-71
2023/03/31 04:58:22;;;;;;;4.53;2.50;;;8.90;99.90;;;;;;5011375;28;20203;-71
2023/03/31 05:00:49;;;;;;;2.15;1.67;;;8.80;99.90;;;;;;5012218;28;20302;-70
2023/03/31 05:03:16;;;;;;;2.80;2.00;;;8.80;99.90;;;;;;5011565;28;20210;-70
2023/03/31 05:05:42;;;;;;;4.65;2.30;;;8.80;99.90;;;;;;5011834;28;20273;-71
2023/03/31 05:08:09;;;;;;;4.60;2.55;;;8.80;99.90;;;;;;5011494;28;20202;-69
2023/03/31 05:10:37;;;;;;;3.83;2.45;;;8.80;99.90;;;;;;5011625;28;20554;-70
2023/03/31 05:13:04;;;;;;;7.13;2.60;;;8.80;99.90;;;;;;5011796;28;20253;-70
2023/03/31 05:15:31;;;;;;;2.65;2.00;;;8.80;99.90;;;;;;5011545;28;20617;-69
2023/03/31 05:17:58;;;;;;;4.25;2.50;;;8.80;99.90;;;;;;5011622;28;20212;-72
2023/03/31 05:20:24;;;;;;;4.85;2.33;;;8.80;99.90;;;;;;5011298;28;21042;-73
2023/03/31 05:22:52;;;;;;;3.05;2.33;;;8.90;99.90;;;;;;5011638;28;20202;-71
2023/03/31 05:25:18;;;;;;;4.57;3.15;;;8.90;99.90;;;;;;5011072;28;20884;-72
2023/03/31 05:27:47;;;;;;;3.58;2.70;;;8.90;99.90;;;;;;5011238;28;20201;-72
2023/03/31 05:30:14;;;;;;;3.13;2.60;;;9.00;99.90;;;;;;5011471;28;20226;-72
2023/03/31 05:32:41;;;;;;;2.97;2.25;;;9.10;99.90;;;;;;5011564;28;20202;-72
2023/03/31 05:35:08;;;;;;;3.53;2.63;;;9.10;99.90;;;;;;5011138;28;20199;-72
2023/03/31 05:37:35;;;;;;;3.50;2.70;;;9.10;99.90;;;;;;5011134;28;20206;-72
2023/03/31 05:40:03;;;;;;;2.90;2.35;;;9.10;99.90;;;;;;5010358;28;20228;-71
2023/03/31 05:42:30;;;;;;;2.95;2.13;;;9.10;99.90;;;;;;5011123;28;20203;-72
2023/03/31 05:44:58;;;;;;;3.45;2.47;;;9.00;99.90;;;;;;5011208;28;20217;-72
2023/03/31 05:47:25;;;;;;;2.50;2.30;;;9.10;99.90;;;;;;5010621;28;20206;-71
2023/03/31 05:49:52;;;;;;;2.70;2.30;;;9.10;99.90;;;;;;5010797;28;20241;-71
2023/03/31 05:52:19;;;;;;;3.65;2.83;;;9.10;99.90;;;;;;5010753;28;20217;-71
2023/03/31 05:54:46;;;;;;;4.13;2.75;;;9.10;99.90;;;;;;5011169;28;20198;-71
2023/03/31 05:57:12;;;;;;;3.75;2.67;;;9.00;99.90;;;;;;5010809;28;20209;-72
2023/03/31 05:59:41;;;;;;;3.70;2.25;;;9.00;99.90;;;;;;5010674;28;20268;-71
2023/03/31 06:02:12;;;;;;;2.80;2.22;;;9.00;99.90;;;;;;5010813;28;20210;-70
2023/03/31 06:04:39;;;;;;;5.10;2.72;;;9.00;99.90;;;;;;5010613;28;20684;-71
2023/03/31 06:07:07;;;;;;;2.55;2.30;;;9.00;99.90;;;;;;5010884;28;20305;-71
2023/03/31 06:09:33;;;;;;;2.92;2.40;;;9.00;99.90;;;;;;5010471;28;20202;-71
2023/03/31 06:12:00;;;;;;;3.78;2.40;;;9.00;99.90;;;;;;5010772;28;20210;-72
2023/03/31 06:14:27;;;;;;;3.10;2.80;;;9.00;99.90;;;;;;5010623;28;20606;-69
2023/03/31 06:16:54;;;;;;;5.05;2.80;;;9.00;99.90;;;;;;5010573;28;20201;-73
2023/03/31 06:19:23;;;;;;;3.90;2.17;;;9.00;99.90;;;;;;5010027;28;20202;-70
2023/03/31 06:21:51;;;;;;;4.00;2.33;;;9.10;99.90;;;;;;5010657;28;20662;-72
2023/03/31 06:24:17;;;;;;;4.72;3.20;;;9.10;99.90;;;;;;5010587;28;20264;-71
2023/03/31 06:26:44;;;;;;;2.72;2.47;;;9.10;99.90;;;;;;5010751;28;20214;-70
2023/03/31 06:29:11;;;;;;;5.80;3.17;;;9.10;99.90;;;;;;5010154;28;20298;-70
2023/03/31 06:31:37;;;;;;;6.28;3.42;;;9.00;99.90;;;;;;5010411;28;20595;-70
2023/03/31 06:34:05;;;;;;;5.35;3.42;;;9.00;99.90;;;;;;5010371;28;20206;-70
2023/03/31 06:36:33;;;;;;;3.85;2.90;;;9.00;99.90;;;;;;5010278;28;20203;-69
2023/03/31 06:39:00;;;;;;;3.92;2.95;;;9.00;99.90;;;;;;5010308;28;20202;-70
2023/03/31 06:41:27;;;;;;;4.93;3.63;;;9.00;99.90;;;;;;5010246;28;20969;-70
2023/03/31 06:43:53;;;;;;;4.57;2.92;;;9.00;99.90;;;;;;5010623;28;20209;-70
2023/03/31 06:46:20;;;;;;;3.67;2.95;;;8.90;99.90;;;;;;5009846;28;20772;-70
2023/03/31 06:48:47;;;;;;;3.58;2.83;;;8.90;99.90;;;;;;5010294;28;20555;-71
2023/03/31 06:51:14;;;;;;;3.92;2.90;;;8.90;99.90;;;;;;5011306;28;20250;-71
2023/03/31 06:53:42;;;;;;;4.05;2.80;;;8.80;99.90;;;;;;5014482;28;20205;-72
2023/03/31 06:56:08;;;;;;;4.47;3.13;;;8.70;99.90;;;;;;5014008;28;20570;-72
2023/03/31 06:58:35;;;;;;;8.20;4.15;;;8.70;99.90;;;;;;5004459;28;20215;-71
2023/03/31 07:01:03;;;;;;;5.40;3.35;;;8.70;99.90;;;;;;5013981;28;20233;-72
2023/03/31 07:03:30;;;;;;;3.25;2.80;;;8.80;99.90;;;;;;5013850;28;20317;-71
2023/03/31 07:05:57;;;;;;;5.13;3.00;;;8.80;99.90;;;;;;5013978;28;20246;-71
2023/03/31 07:08:24;;;;;;;3.90;3.00;;;8.80;99.90;;;;;;5013636;28;20293;-74
2023/03/31 07:10:56;;;;;;;5.38;2.90;;;8.80;99.90;;;;;;5014030;28;20233;-73
2023/03/31 07:13:23;;;;;;;5.05;3.03;;;8.90;99.90;;;;;;5013957;28;20694;-70
2023/03/31 07:15:50;;;;;;;4.18;3.45;;;8.90;99.90;;;;;;5014237;28;20199;-70
2023/03/31 07:18:17;;;;;;;3.22;2.60;;;8.90;99.90;;;;;;5013628;28;20619;-71
2023/03/31 07:20:47;;;;;;;3.03;2.05;;;9.00;99.90;;;;;;5013662;28;20564;-72
2023/03/31 07:23:14;;;;;;;2.65;2.45;;;9.00;99.90;;;;;;5013316;28;20206;-70
2023/03/31 07:25:40;;;;;;;2.90;2.25;;;9.10;99.90;;;;;;5003396;28;20219;-72
2023/03/31 07:28:09;;;;;;;3.13;2.13;;;9.10;99.90;;;;;;5005908;28;20202;-72
2023/03/31 07:30:35;;;;;;;2.30;1.70;;;9.10;99.90;;;;;;5012961;28;20261;-73
2023/03/31 07:33:02;;;;;;;3.47;2.13;;;9.20;99.90;;;;;;5012864;28;20226;-70
2023/03/31 07:35:29;;;;;;;2.85;2.20;;;9.20;99.90;;;;;;5013067;28;20210;-70
2023/03/31 07:37:55;;;;;;;1.92;1.70;;;9.30;99.90;;;;;;5013213;28;20285;-72
2023/03/31 07:40:24;;;;;;;1.83;1.63;;;9.50;99.90;;;;;;5012594;28;20494;-71
2023/03/31 07:42:52;;;;;;;2.08;1.50;;;9.90;99.90;;;;;;5012887;28;20206;-70
2023/03/31 07:45:25;;;;;;;2.10;1.10;;;10.40;99.90;;;;;;5012944;28;20206;-70
2023/03/31 07:47:52;;;;;;;1.45;1.30;;;11.00;99.90;;;;;;5012838;28;20588;-73
2023/03/31 07:50:19;;;;;;;1.65;1.13;;;11.40;99.90;;;;;;5012730;28;20222;-71
2023/03/31 07:52:46;;;;;;;1.95;1.30;;;11.00;99.90;;;;;;5012815;28;20234;-70
2023/03/31 07:55:13;;;;;;;1.77;1.23;;;10.90;99.90;;;;;;5012135;28;20237;-75
2023/03/31 07:57:40;;;;;;;1.23;1.13;;;11.00;99.90;;;;;;5012502;28;20210;-74
2023/03/31 08:00:11;;;;;;;1.25;1.10;;;11.00;99.90;;;;;;5013086;28;20317;-73
2023/03/31 08:02:39;;;;;;;1.27;1.00;;;11.10;99.90;;;;;;5011279;28;20689;-74
2023/03/31 08:05:07;;;;;;;3.05;1.75;;;11.00;99.90;;;;;;5012830;28;20627;-71
2023/03/31 08:07:34;;;;;;;1.27;1.17;;;10.90;99.90;;;;;;5012180;28;20223;-72
2023/03/31 08:10:03;;;;;;;1.50;1.15;;;11.30;99.90;;;;;;5012620;28;20268;-73
2023/03/31 08:12:30;;;;;;;2.58;0.98;;;12.00;99.90;;;;;;5012470;28;20265;-74
2023/03/31 08:14:58;;;;;;;1.20;1.00;;;12.70;99.90;;;;;;5012466;28;20202;-72
2023/03/31 08:17:25;;;;;;;1.47;1.10;;;13.00;99.90;;;;;;5011955;28;20680;-73
2023/03/31 08:19:53;;;;;;;1.20;1.00;;;13.10;99.90;;;;;;4996378;28;21048;-74
2023/03/31 08:22:22;;;;;;;1.10;1.00;;;13.60;99.90;;;;;;5012674;28;20619;-74
2023/03/31 08:24:49;;;;;;;0.97;0.83;;;14.20;99.90;;;;;;5012389;28;21024;-71
2023/03/31 08:27:16;;;;;;;1.20;1.07;;;14.30;99.90;;;;;;5012283;28;20477;-72
2023/03/31 08:29:43;;;;;;;1.00;0.90;;;14.70;99.90;;;;;;5012164;28;20481;-72
2023/03/31 08:32:10;;;;;;;1.07;0.97;;;14.80;99.90;;;;;;5010788;28;20896;-72
2023/03/31 08:34:37;;;;;;;2.20;1.00;;;15.20;99.90;;;;;;5011729;28;20986;-72
2023/03/31 08:37:05;;;;;;;2.40;1.00;;;15.70;99.90;;;;;;5011851;28;20543;-72
2023/03/31 08:39:33;;;;;;;3.77;1.10;;;16.50;99.90;;;;;;5010651;28;20457;-69
2023/03/31 08:42:02;;;;;;;1.27;1.17;;;16.70;99.90;;;;;;5011642;28;20469;-70
2023/03/31 08:44:35;;;;;;;2.60;1.33;;;17.20;99.90;;;;;;5011232;28;20472;-71
2023/03/31 08:47:05;;;;;;;1.97;1.23;;;17.20;99.90;;;;;;5010841;28;20509;-69
2023/03/31 08:49:40;;;;;;;1.50;1.00;;;17.50;99.90;;;;;;5010728;28;20461;-69
2023/03/31 08:52:14;;;;;;;1.80;1.23;;;17.90;99.90;;;;;;5011940;28;20460;-71
2023/03/31 08:54:44;;;;;;;1.67;1.30;;;18.50;99.90;;;;;;5011529;28;20560;-70
2023/03/31 08:57:18;;;;;;;3.40;1.30;;;18.70;99.90;;;;;;5011223;28;20537;-69
2023/03/31 08:59:46;;;;;;;1.63;1.10;;;18.20;99.90;;;;;;5011853;28;20572;-70
2023/03/31 09:02:21;;;;;;;1.50;1.07;;;18.00;99.90;;;;;;5011236;28;20497;-69
2023/03/31 09:05:20;;;;;;;2.33;1.33;;;17.70;99.90;;;;;;5011633;28;20464;-70
2023/03/31 09:07:58;;;;;;;2.07;1.03;;;17.00;99.90;;;;;;5011509;28;20473;-68
2023/03/31 09:10:37;;;;;;;1.57;1.10;;;16.30;99.90;;;;;;5011080;28;21019;-68
2023/03/31 09:13:17;;;;;;;2.03;0.93;;;16.20;99.90;;;;;;5068828;22;20867;-72
2023/03/31 09:15:48;;;;;;;1.63;1.17;;;16.70;99.90;;;;;;5011751;28;20949;-74
2023/03/31 09:18:25;;;;;;;2.70;1.33;;;16.90;99.90;;;;;;5011696;28;20458;-76
2023/03/31 09:20:57;;;;;;;1.30;0.90;;;17.40;99.90;;;;;;4998393;28;21051;-76
2023/03/31 09:23:30;;;;;;;2.17;1.27;;;17.80;99.90;;;;;;4991670;28;20834;-73
2023/03/31 09:25:59;;;;;;;2.60;1.20;;;17.30;99.90;;;;;;4991502;28;20536;-72
2023/03/31 09:28:31;;;;;;;2.20;1.40;;;17.00;99.90;;;;;;4991359;28;20707;-72
2023/03/31 09:30:58;;;;;;;1.70;1.20;;;16.70;99.90;;;;;;4991205;28;20586;-71
2023/03/31 09:33:30;;;;;;;3.43;1.57;;;16.90;99.90;;;;;;4991729;28;20474;-71
2023/03/31 09:35:58;;;;;;;2.20;1.13;;;17.20;99.90;;;;;;4991414;28;20458;-72
2023/03/31 09:38:28;;;;;;;1.87;1.00;;;16.50;99.90;;;;;;4990935;28;20462;-72
2023/03/31 09:40:55;;;;;;;1.20;1.07;;;15.70;99.90;;;;;;4991249;28;20549;-72
2023/03/31 09:43:24;;;;;;;1.70;1.60;;;15.20;99.90;;;;;;4991045;28;20466;-73
2023/03/31 09:45:52;;;;;;;2.90;1.30;;;15.00;99.90;;;;;;4990939;28;20474;-72
2023/03/31 09:48:22;;;;;;;1.73;0.93;;;15.60;99.90;;;;;;4990482;28;20492;-72
2023/03/31 09:50:52;;;;;;;2.90;1.07;;;15.60;99.90;;;;;;4990680;28;20493;-71
2023/03/31 09:53:25;;;;;;;2.67;1.20;;;15.80;99.90;;;;;;4982250;28;20853;-74
2023/03/31 09:55:56;;;;;;;3.43;1.57;;;16.20;99.90;;;;;;4971968;28;20478;-70
2023/03/31 09:58:24;;;;;;;1.20;1.00;;;16.50;99.90;;;;;;4976046;28;21083;-72
2023/03/31 10:00:59;;;;;;;1.63;1.03;;;16.30;99.90;;;;;;4990729;28;20514;-72
2023/03/31 10:03:28;;;;;;;2.67;1.40;;;16.00;99.90;;;;;;4991469;28;20813;-72
2023/03/31 10:05:57;;;;;;;1.60;1.00;;;16.00;99.90;;;;;;4989305;28;20482;-73
2023/03/31 10:08:28;;;;;;;4.90;1.10;;;16.90;99.90;;;;;;4991980;28;20481;-73
2023/03/31 10:11:06;;;;;;;1.63;1.10;;;18.10;98.70;;;;;;4992132;28;20493;-73
2023/03/31 10:13:42;;;;;;;2.60;1.27;;;18.50;98.60;;;;;;4992579;28;20457;-72
2023/03/31 10:16:13;;;;;;;3.47;1.90;;;18.20;98.00;;;;;;4991814;28;20551;-73
2023/03/31 10:18:42;;;;;;;2.17;1.40;;;17.40;98.50;;;;;;4991269;28;20458;-72
2023/03/31 10:21:21;;;;;;;2.17;1.13;;;17.30;98.00;;;;;;4990960;28;21020;-73
2023/03/31 10:23:49;;;;;;;4.10;1.40;;;17.40;98.40;;;;;;4991021;28;20915;-72
2023/03/31 10:26:21;;;;;;;2.40;1.30;;;18.20;97.60;;;;;;4990426;28;20549;-73
2023/03/31 10:28:51;;;;;;;2.57;1.27;;;19.00;96.60;;;;;;4991484;28;20476;-73
2023/03/31 10:31:18;;;;;;;3.70;1.47;;;20.10;95.70;;;;;;4991451;28;20517;-72
2023/03/31 10:33:47;;;;;;;3.03;1.73;;;21.00;93.30;;;;;;4991676;28;20835;-72
2023/03/31 10:36:20;;;;;;;2.20;1.27;;;20.50;92.50;;;;;;4991300;28;20695;-71
2023/03/31 10:38:48;;;;;;;2.90;1.77;;;19.60;92.80;;;;;;4991185;28;20463;-73
2023/03/31 10:41:20;;;;;;;2.70;1.40;;;18.10;94.50;;;;;;4991256;28;20492;-73
2023/03/31 10:43:50;;;;;;;3.00;1.60;;;18.30;95.10;;;;;;4991594;28;20466;-72
2023/03/31 10:46:17;;;;;;;1.90;1.10;;;19.10;94.50;;;;;;4991784;28;20462;-73
2023/03/31 10:48:44;;;;;;;1.77;1.00;;;20.10;93.10;;;;;;4991017;28;21027;-73
2023/03/31 10:51:15;;;;;;;2.63;1.40;;;19.30;92.00;;;;;;4991188;28;20474;-73
2023/03/31 10:53:42;;;;;;;1.60;1.33;;;19.10;93.00;;;;;;4991298;28;20980;-72
2023/03/31 10:56:24;;;;;;;4.87;1.03;;;19.50;92.00;;;;;;4991315;28;20842;-72
2023/03/31 10:59:06;;;;;;;2.50;1.00;;;20.10;91.90;;;;;;4991277;28;20549;-71
2023/03/31 11:01:45;;;;;;;2.23;1.40;;;20.20;91.20;;;;;;4971252;28;21005;-72
2023/03/31 11:04:43;;;;;;;2.20;1.10;;;18.90;91.70;;;;;;4978164;28;20844;-72
2023/03/31 11:07:18;;;;;;;1.90;1.07;;;17.90;92.80;;;;;;4988739;28;20486;-70
2023/03/31 11:09:56;;;;;;;2.37;1.17;;;17.10;93.60;;;;;;4988663;28;20477;-72
2023/03/31 11:12:31;;;;;;;1.53;1.10;;;16.70;94.30;;;;;;4990565;28;20470;-72
2023/03/31 11:15:12;;;;;;;2.40;1.47;;;16.30;94.50;;;;;;4993225;28;20552;-73
2023/03/31 11:17:53;;;;;;;5.73;1.93;;;15.80;95.10;;;;;;4986468;28;20925;-73
2023/03/31 11:20:27;;;;;;;3.73;1.57;;;15.30;97.60;;;;;;4991798;28;20481;-74
2023/03/31 11:22:59;;;;;;;1.50;1.03;;;14.70;99.90;;;;;;4991729;28;20466;-73
2023/03/31 11:25:38;;;;;;;1.40;0.83;;;14.00;99.90;;;;;;4991227;28;21178;-73
2023/03/31 11:28:29;;;;;;;1.10;0.82;;;12.70;99.90;;;;;;4975387;28;20484;-69
2023/03/31 11:31:09;;;;;;;0.90;0.70;;;11.80;99.90;;;;;;4991010;28;20310;-74
2023/03/31 11:33:51;;;;;;;0.90;0.70;;;11.10;99.90;;;;;;4991080;28;20654;-72
2023/03/31 11:36:40;;;;;;;1.98;0.70;;;10.60;99.90;;;;;;4978561;28;20231;-71
2023/03/31 11:39:30;;;;;;;1.90;0.82;;;10.20;99.90;;;;;;4993977;28;20290;-71
2023/03/31 11:42:00;;;;;;;1.27;0.90;;;9.90;99.90;;;;;;4993955;28;20722;-71
2023/03/31 11:44:36;;;;;;;1.00;0.75;;;9.70;99.90;;;;;;4993501;28;20202;-70
2023/03/31 11:47:08;;;;;;;1.52;1.10;;;9.50;99.90;;;;;;4994953;28;20238;-77
2023/03/31 11:49:40;;;;;;;1.35;0.80;;;9.50;99.90;;;;;;4996905;28;20584;-74
2023/03/31 11:52:12;;;;;;;1.00;0.90;;;9.50;99.90;;;;;;4995559;28;20227;-74
2023/03/31 11:54:43;;;;;;;0.90;0.70;;;9.70;99.90;;;;;;4996268;28;20214;-73
2023/03/31 11:57:16;;;;;;;0.82;0.70;;;10.00;99.90;;;;;;4994901;28;20637;-76
2023/03/31 11:59:50;;;;;;;0.80;0.70;;;10.50;99.90;;;;;;4996019;28;20269;-75
2023/03/31 12:02:23;;;;;;;1.00;0.80;;;11.20;99.90;;;;;;4985460;28;20675;-75
2023/03/31 12:04:55;;;;;;;0.90;0.70;;;13.00;99.90;;;;;;4990656;28;20294;-71
2023/03/31 12:07:28;;;;;;;1.10;0.90;;;14.70;99.90;;;;;;5005234;28;20219;-73
2023/03/31 12:10:04;;;;;;;1.50;0.77;;;16.10;99.90;;;;;;5000652;28;20486;-75
2023/03/31 12:12:35;;;;;;;0.80;0.60;;;17.20;99.90;;;;;;5002591;28;20910;-75
2023/03/31 12:15:13;;;;;;;1.20;0.70;;;16.80;99.90;;;;;;5000085;28;20462;-73
2023/03/31 12:17:41;;;;;;;1.00;0.77;;;16.00;99.90;;;;;;4996065;28;20851;-75
2023/03/31 12:20:27;;;;;;;1.43;0.90;;;15.50;99.90;;;;;;4981137;28;20849;-75
2023/03/31 12:22:56;;;;;;;1.00;0.70;;;15.20;99.90;;;;;;4993152;28;20557;-75
2023/03/31 12:25:25;;;;;;;2.00;0.80;;;15.30;99.90;;;;;;4960766;28;20484;-75
2023/03/31 12:27:53;;;;;;;1.00;0.70;;;16.20;99.90;;;;;;4972270;28;20843;-74
2023/03/31 12:30:29;;;;;;;0.80;0.70;;;17.00;99.30;;;;;;4965536;28;20915;-74
2023/03/31 12:33:02;;;;;;;1.00;0.70;;;17.80;98.00;;;;;;4958891;28;20478;-74
2023/03/31 12:35:35;;;;;;;1.00;0.70;;;18.00;97.90;;;;;;4962180;28;20477;-75
2023/03/31 12:38:24;;;;;;;0.97;0.83;;;18.70;97.30;;;;;;4968597;28;20475;-73
2023/03/31 12:41:00;;;;;;;1.47;0.90;;;19.00;96.60;;;;;;4988965;28;21015;-75
2023/03/31 12:43:55;;;;;;;2.10;1.00;;;19.50;95.40;;;;;;4994370;28;20468;-74
2023/03/31 12:46:39;;;;;;;1.13;0.80;;;19.70;95.00;;;;;;4983172;28;20469;-74
2023/03/31 12:49:20;;;;;;;4.10;0.90;;;19.40;95.00;;;;;;4992769;28;20474;-73
2023/03/31 12:52:02;;;;;;;2.03;1.03;;;19.20;94.80;;;;;;4992887;28;20470;-74
2023/03/31 12:55:00;;;;;;;1.20;0.80;;;19.40;94.70;;;;;;5005042;28;20554;-74
2023/03/31 12:57:27;;;;;;;1.43;1.03;;;20.00;94.80;;;;;;4995873;28;20573;-74
2023/03/31 13:00:20;;;;;;;1.17;1.07;;;20.60;93.90;;;;;;4994011;28;20525;-73
2023/03/31 13:02:50;;;;;;;2.07;1.20;;;20.30;93.40;;;;;;4995012;28;20466;-74
2023/03/31 13:05:47;;;;;;;0.90;0.80;;;19.40;94.40;;;;;;4996726;28;20552;-75
2023/03/31 13:08:51;;;;;;;1.27;0.90;;;18.80;95.20;;;;;;4994786;28;20509;-75
2023/03/31 13:11:20;;;;;;;1.63;1.03;;;17.70;94.80;;;;;;4991441;28;20493;-75
2023/03/31 13:13:57;;;;;;;1.97;1.10;;;16.80;96.50;;;;;;4994542;28;20469;-74